Time;durP1;ratioP1;P1;durP2;ratioP2;P2;SDS_P1;SDS_P2;PMS_P1;PMS_P2;Temp;Humidity;BMP_temperature;BMP_pressure;BME280_temperature;BME280_humidity;BME280_pressure;Samples;Min_cycle;Max_cycle;Signal;HPM_P1;HPM_P2
2021/08/07 00:01:34;;;;;;;5.50;3.70;;;16.30;99.90;;;;;;4975385;28;20676;-64
2021/08/07 00:04:00;;;;;;;2.77;2.57;;;16.30;99.90;;;;;;4975711;28;20262;-64
2021/08/07 00:06:25;;;;;;;2.77;2.57;;;16.20;99.90;;;;;;4975844;28;20537;-64
2021/08/07 00:08:51;;;;;;;4.43;2.77;;;16.10;99.90;;;;;;4975440;28;20411;-64
2021/08/07 00:11:17;;;;;;;3.00;2.70;;;16.10;99.90;;;;;;4975384;28;20204;-64
2021/08/07 00:13:43;;;;;;;3.17;2.97;;;16.20;99.90;;;;;;4975624;28;20207;-64
2021/08/07 00:16:08;;;;;;;3.50;2.90;;;16.20;99.90;;;;;;4975489;28;20171;-64
2021/08/07 00:18:34;;;;;;;4.03;3.03;;;16.20;99.90;;;;;;4974861;28;20223;-64
2021/08/07 00:20:59;;;;;;;3.53;3.10;;;16.20;99.90;;;;;;4975276;28;20204;-64
2021/08/07 00:23:25;;;;;;;3.10;2.90;;;16.20;99.90;;;;;;4975098;28;20638;-64
2021/08/07 00:25:50;;;;;;;2.90;2.70;;;16.20;99.90;;;;;;4975300;28;20177;-64
2021/08/07 00:28:16;;;;;;;2.77;2.30;;;16.20;99.90;;;;;;4974746;28;20291;-64
2021/08/07 00:30:41;;;;;;;2.80;2.60;;;16.20;99.90;;;;;;4974832;28;20652;-64
2021/08/07 00:33:07;;;;;;;4.37;2.70;;;16.30;99.90;;;;;;4975126;28;20548;-64
2021/08/07 00:35:33;;;;;;;2.87;2.67;;;16.20;99.90;;;;;;4975054;28;20177;-64
2021/08/07 00:37:58;;;;;;;3.80;3.40;;;16.20;99.90;;;;;;4975215;28;20646;-64
2021/08/07 00:40:24;;;;;;;3.70;2.97;;;16.20;99.90;;;;;;4974662;28;20200;-64
2021/08/07 00:42:49;;;;;;;2.93;2.73;;;16.20;99.90;;;;;;4957654;28;20208;-64
2021/08/07 00:45:15;;;;;;;3.53;2.83;;;16.20;99.90;;;;;;4974720;28;20548;-64
2021/08/07 00:47:40;;;;;;;3.70;3.40;;;16.20;99.90;;;;;;4974910;28;20647;-64
2021/08/07 00:50:07;;;;;;;5.50;3.40;;;16.20;99.90;;;;;;4974653;28;20180;-64
2021/08/07 00:52:32;;;;;;;4.50;2.83;;;16.20;99.90;;;;;;4974620;28;20206;-64
2021/08/07 00:55:02;;;;;;;3.70;3.40;;;16.30;99.90;;;;;;4975260;28;20416;-64
2021/08/07 00:57:28;;;;;;;5.60;3.13;;;16.20;99.90;;;;;;4974589;28;20180;-64
2021/08/07 00:59:54;;;;;;;5.53;3.10;;;16.10;99.90;;;;;;4974161;28;20446;-64
2021/08/07 01:02:21;;;;;;;4.90;2.97;;;16.10;99.90;;;;;;4956959;28;20455;-64
2021/08/07 01:05:08;;;;;;;3.77;3.33;;;16.00;99.90;;;;;;4974937;28;20556;-64
2021/08/07 01:07:52;;;;;;;3.33;3.10;;;16.00;99.90;;;;;;4974705;28;20411;-64
2021/08/07 01:10:40;;;;;;;3.77;3.50;;;16.00;99.90;;;;;;4974007;28;20428;-64
2021/08/07 01:13:14;;;;;;;3.37;2.67;;;16.00;99.90;;;;;;4974689;28;20772;-63
2021/08/07 01:15:44;;;;;;;4.10;3.03;;;15.90;99.90;;;;;;4974281;28;20423;-64
2021/08/07 01:18:14;;;;;;;8.13;4.07;;;15.90;99.90;;;;;;4974610;28;20416;-63
2021/08/07 01:20:44;;;;;;;6.37;3.30;;;15.90;99.90;;;;;;4974096;28;20412;-64
2021/08/07 01:23:31;;;;;;;5.60;3.17;;;15.90;99.90;;;;;;4974214;28;20829;-64
2021/08/07 01:25:57;;;;;;;7.60;3.30;;;15.90;99.90;;;;;;4974440;28;20575;-64
2021/08/07 01:28:31;;;;;;;3.00;2.80;;;16.00;99.90;;;;;;4973633;28;20910;-63
2021/08/07 01:30:57;;;;;;;4.67;3.47;;;16.00;99.90;;;;;;4973258;28;20196;-63
2021/08/07 01:33:26;;;;;;;5.73;4.03;;;16.00;99.90;;;;;;4973508;28;20570;-64
2021/08/07 01:35:52;;;;;;;5.80;3.53;;;16.10;99.90;;;;;;4974181;28;20518;-64
2021/08/07 01:38:18;;;;;;;3.60;3.27;;;16.10;99.90;;;;;;4973634;28;20470;-63
2021/08/07 01:40:43;;;;;;;3.53;2.83;;;16.10;99.90;;;;;;4973845;28;20565;-64
2021/08/07 01:43:09;;;;;;;3.60;2.63;;;16.20;99.90;;;;;;4973959;28;20200;-64
2021/08/07 01:45:35;;;;;;;7.20;3.60;;;16.20;99.90;;;;;;4973925;28;20219;-64
2021/08/07 01:48:14;;;;;;;8.30;3.47;;;16.20;99.90;;;;;;4973747;28;20176;-64
2021/08/07 01:50:54;;;;;;;3.63;3.33;;;16.20;99.90;;;;;;4973624;28;20182;-64
2021/08/07 01:53:24;;;;;;;3.47;2.73;;;16.20;99.90;;;;;;4973752;28;20695;-63
2021/08/07 01:56:21;;;;;;;2.63;2.43;;;16.20;99.90;;;;;;4973614;28;20435;-63
2021/08/07 01:58:54;;;;;;;3.30;3.10;;;16.20;99.90;;;;;;4972661;28;20438;-64
2021/08/07 02:01:28;;;;;;;4.63;3.13;;;16.20;99.90;;;;;;4973127;28;21015;-64
2021/08/07 02:03:54;;;;;;;3.40;3.10;;;16.20;99.90;;;;;;4973374;28;20482;-64
2021/08/07 02:06:24;;;;;;;3.77;2.97;;;16.30;99.90;;;;;;4973418;28;20801;-64
2021/08/07 02:08:51;;;;;;;3.63;2.77;;;16.30;99.90;;;;;;4973229;28;20948;-64
2021/08/07 02:11:17;;;;;;;3.73;3.40;;;16.30;99.90;;;;;;4973179;28;20447;-64
2021/08/07 02:13:44;;;;;;;3.83;3.10;;;16.30;99.90;;;;;;4973227;28;20431;-64
2021/08/07 02:16:10;;;;;;;3.40;2.70;;;16.20;99.90;;;;;;4973181;28;20432;-64
2021/08/07 02:18:41;;;;;;;4.20;3.30;;;16.30;99.90;;;;;;4972619;28;20438;-64
2021/08/07 02:21:07;;;;;;;3.70;3.20;;;16.20;99.90;;;;;;4972865;28;20510;-64
2021/08/07 02:23:33;;;;;;;3.97;3.03;;;16.10;99.90;;;;;;4972675;28;20467;-64
2021/08/07 02:26:04;;;;;;;3.10;2.80;;;16.10;99.90;;;;;;4973295;28;20474;-64
2021/08/07 02:28:30;;;;;;;3.30;3.00;;;16.10;99.90;;;;;;4972426;28;20478;-64
2021/08/07 02:30:59;;;;;;;2.90;2.63;;;16.10;99.90;;;;;;4972597;28;20455;-64
2021/08/07 02:33:25;;;;;;;4.33;3.30;;;16.20;99.90;;;;;;4973092;28;20563;-64
2021/08/07 02:35:53;;;;;;;3.53;3.00;;;16.20;99.90;;;;;;4973027;28;20475;-64
2021/08/07 02:38:20;;;;;;;4.23;2.87;;;16.30;99.90;;;;;;4972396;28;20431;-63
2021/08/07 02:40:46;;;;;;;3.30;3.03;;;16.20;99.90;;;;;;4972853;28;20470;-64
2021/08/07 02:43:14;;;;;;;6.13;3.67;;;16.10;99.90;;;;;;4955766;28;20451;-64
2021/08/07 02:45:40;;;;;;;3.87;3.53;;;16.00;99.90;;;;;;4972580;28;20177;-64
2021/08/07 02:48:06;;;;;;;3.20;2.87;;;16.00;99.90;;;;;;4973198;28;20521;-63
2021/08/07 02:50:34;;;;;;;3.37;3.07;;;15.90;99.90;;;;;;4972571;28;20510;-63
2021/08/07 02:53:01;;;;;;;3.33;3.03;;;15.90;99.90;;;;;;4973134;28;20415;-63
2021/08/07 02:55:27;;;;;;;3.57;3.20;;;15.90;99.90;;;;;;4972601;28;20707;-63
2021/08/07 02:57:53;;;;;;;2.83;2.63;;;15.90;99.90;;;;;;4973094;28;20454;-63
2021/08/07 03:00:20;;;;;;;3.80;2.70;;;15.90;99.90;;;;;;4972576;28;20537;-63
2021/08/07 03:02:45;;;;;;;3.30;3.00;;;16.00;99.90;;;;;;4972280;28;20466;-64
2021/08/07 03:05:11;;;;;;;3.50;3.20;;;15.90;99.90;;;;;;4955489;28;20803;-64
2021/08/07 03:07:37;;;;;;;3.53;3.10;;;15.90;99.90;;;;;;4972907;28;20177;-64
2021/08/07 03:10:08;;;;;;;3.77;3.00;;;15.90;99.90;;;;;;4972610;28;20173;-64
2021/08/07 03:12:34;;;;;;;3.53;2.73;;;15.90;99.90;;;;;;4972583;28;20582;-64
2021/08/07 03:15:00;;;;;;;4.53;2.77;;;15.80;99.90;;;;;;4972543;28;20423;-63
2021/08/07 03:17:25;;;;;;;3.30;3.03;;;15.70;99.90;;;;;;4972729;28;20422;-64
2021/08/07 03:19:51;;;;;;;4.07;3.47;;;15.60;99.90;;;;;;4972612;28;20251;-64
2021/08/07 03:22:17;;;;;;;4.10;3.80;;;15.60;99.90;;;;;;4972711;28;20208;-64
2021/08/07 03:24:43;;;;;;;3.73;2.87;;;15.60;99.90;;;;;;4972804;28;20169;-64
2021/08/07 03:27:09;;;;;;;3.13;2.83;;;15.40;99.90;;;;;;4972608;28;20459;-63
2021/08/07 03:29:35;;;;;;;6.00;3.60;;;15.50;99.90;;;;;;4972194;28;20472;-64
2021/08/07 03:32:00;;;;;;;4.73;3.37;;;15.40;99.90;;;;;;4972246;28;20196;-63
2021/08/07 03:34:26;;;;;;;3.50;3.20;;;15.40;99.90;;;;;;4972841;28;20178;-64
2021/08/07 03:36:52;;;;;;;4.00;3.60;;;15.40;99.90;;;;;;4954147;28;20181;-63
2021/08/07 03:39:17;;;;;;;4.53;4.10;;;15.50;99.90;;;;;;4971765;28;20176;-64
2021/08/07 03:41:43;;;;;;;4.17;3.10;;;15.50;99.90;;;;;;4972159;28;20292;-64
2021/08/07 03:44:08;;;;;;;4.00;3.23;;;15.50;99.90;;;;;;4972486;28;20643;-64
2021/08/07 03:46:34;;;;;;;5.03;3.50;;;15.40;99.90;;;;;;4972119;28;20231;-63
2021/08/07 03:48:59;;;;;;;4.47;4.07;;;15.30;99.90;;;;;;4971989;28;20255;-63
2021/08/07 03:51:25;;;;;;;3.20;3.00;;;15.40;99.90;;;;;;4971930;28;20531;-64
2021/08/07 03:53:51;;;;;;;3.50;3.20;;;15.40;99.90;;;;;;4974451;28;20173;-64
2021/08/07 03:56:16;;;;;;;3.87;3.27;;;15.50;99.90;;;;;;4975658;28;20181;-64
2021/08/07 03:58:42;;;;;;;3.70;3.40;;;15.40;99.90;;;;;;4975938;28;20680;-64
2021/08/07 04:01:07;;;;;;;4.20;3.80;;;15.40;99.90;;;;;;4975752;28;20200;-63
2021/08/07 04:03:33;;;;;;;5.43;3.37;;;15.40;99.90;;;;;;4975722;28;20196;-64
2021/08/07 04:05:58;;;;;;;4.40;3.40;;;15.30;99.90;;;;;;4958234;28;20646;-64
2021/08/07 04:08:24;;;;;;;4.23;3.30;;;15.30;99.90;;;;;;4975425;28;20184;-63
2021/08/07 04:13:15;;;;;;;2.70;2.50;;;15.20;99.90;;;;;;5025347;23;20242;-65
2021/08/07 04:15:40;;;;;;;3.30;3.10;;;15.20;99.90;;;;;;5000326;28;20660;-67
2021/08/07 04:18:06;;;;;;;3.93;3.53;;;15.20;99.90;;;;;;4997879;28;20183;-63
2021/08/07 04:20:31;;;;;;;3.87;2.87;;;15.20;99.90;;;;;;4993719;28;20636;-66
2021/08/07 04:22:57;;;;;;;4.00;2.80;;;15.30;99.90;;;;;;5011146;28;20541;-66
2021/08/07 04:25:22;;;;;;;9.30;3.30;;;15.30;99.90;;;;;;4994968;28;20180;-64
2021/08/07 04:27:48;;;;;;;8.40;4.03;;;15.30;99.90;;;;;;4994881;28;20203;-66
2021/08/07 04:30:13;;;;;;;4.43;3.43;;;15.40;99.90;;;;;;4994553;28;20260;-65
2021/08/07 04:32:39;;;;;;;3.87;2.97;;;15.50;99.90;;;;;;4994931;28;20200;-66
2021/08/07 04:35:06;;;;;;;3.70;3.00;;;15.60;99.90;;;;;;4997685;28;20171;-66
2021/08/07 04:37:42;;;;;;;4.00;3.27;;;15.60;99.90;;;;;;4996730;28;20229;-65
2021/08/07 04:40:08;;;;;;;4.00;3.60;;;15.70;99.90;;;;;;5013934;28;20426;-66
2021/08/07 04:42:34;;;;;;;5.30;3.20;;;15.70;99.90;;;;;;5014011;28;20442;-66
2021/08/07 04:44:59;;;;;;;3.77;3.47;;;15.70;99.90;;;;;;5014213;28;20934;-66
2021/08/07 04:47:25;;;;;;;4.03;3.37;;;15.70;99.90;;;;;;5014219;28;20167;-65
2021/08/07 04:49:50;;;;;;;4.13;3.20;;;15.70;99.90;;;;;;5013671;28;20173;-66
2021/08/07 04:52:16;;;;;;;5.90;3.60;;;15.70;99.90;;;;;;5014002;28;20198;-66
2021/08/07 04:54:41;;;;;;;3.63;3.33;;;15.60;99.90;;;;;;4996374;28;20183;-66
2021/08/07 04:57:07;;;;;;;4.40;3.73;;;15.50;99.90;;;;;;5013943;28;20175;-66
2021/08/07 04:59:32;;;;;;;3.80;3.50;;;15.50;99.90;;;;;;5013618;28;20171;-65
2021/08/07 05:01:58;;;;;;;3.90;3.40;;;15.60;99.90;;;;;;5013847;28;20183;-65
2021/08/07 05:04:23;;;;;;;4.47;3.27;;;15.60;99.90;;;;;;5012692;28;20199;-66
2021/08/07 05:06:49;;;;;;;9.67;4.00;;;15.60;99.90;;;;;;5013689;28;20171;-65
2021/08/07 05:09:14;;;;;;;4.17;3.80;;;15.70;99.90;;;;;;4997829;28;20559;-64
2021/08/07 05:11:40;;;;;;;3.50;3.20;;;15.80;99.90;;;;;;4993918;28;20215;-66
2021/08/07 05:14:05;;;;;;;3.57;3.27;;;16.00;99.90;;;;;;4994278;28;20544;-65
2021/08/07 05:16:31;;;;;;;4.77;3.50;;;16.10;99.90;;;;;;4984412;28;20192;-66
2021/08/07 05:18:56;;;;;;;4.47;3.13;;;16.30;99.90;;;;;;4974212;28;20184;-66
2021/08/07 05:21:22;;;;;;;5.00;3.03;;;16.30;99.90;;;;;;4992388;28;20210;-66
2021/08/07 05:23:47;;;;;;;5.20;2.70;;;16.40;99.90;;;;;;4993815;28;20199;-66
2021/08/07 05:26:13;;;;;;;3.83;3.53;;;16.50;99.90;;;;;;4993129;28;20191;-66
2021/08/07 05:28:38;;;;;;;2.97;2.60;;;16.60;99.90;;;;;;4993662;28;20219;-66
2021/08/07 05:31:04;;;;;;;5.00;3.00;;;16.60;99.90;;;;;;4993602;28;20175;-66
2021/08/07 05:33:29;;;;;;;3.23;2.93;;;16.60;99.90;;;;;;4993690;28;20586;-66
2021/08/07 05:35:55;;;;;;;3.63;3.33;;;16.50;99.90;;;;;;4990132;28;20183;-66
2021/08/07 05:38:20;;;;;;;4.37;3.43;;;16.60;99.90;;;;;;4992676;28;20186;-66
2021/08/07 05:40:46;;;;;;;4.60;3.07;;;16.70;99.90;;;;;;5012847;28;20186;-66
2021/08/07 05:43:12;;;;;;;3.43;2.57;;;16.80;99.90;;;;;;5003326;28;20693;-65
2021/08/07 05:45:37;;;;;;;3.90;2.90;;;17.10;99.90;;;;;;4993397;28;20179;-66
2021/08/07 05:48:03;;;;;;;3.20;2.90;;;17.30;99.90;;;;;;4993409;28;20172;-65
2021/08/07 05:50:29;;;;;;;4.27;2.83;;;17.60;99.90;;;;;;4992990;28;20631;-65
2021/08/07 05:52:54;;;;;;;7.80;2.80;;;17.90;99.90;;;;;;4993244;28;20245;-65
2021/08/07 05:55:20;;;;;;;6.17;3.60;;;18.20;99.90;;;;;;5002348;28;20178;-66
2021/08/07 05:57:45;;;;;;;4.13;3.30;;;18.30;99.90;;;;;;5012934;28;20636;-66
2021/08/07 06:00:11;;;;;;;5.93;2.67;;;18.50;99.90;;;;;;4994923;28;20183;-65
2021/08/07 06:02:37;;;;;;;3.73;2.80;;;18.70;99.90;;;;;;5012692;28;20195;-65
2021/08/07 06:05:03;;;;;;;5.40;2.73;;;18.80;99.90;;;;;;5012717;28;20417;-66
2021/08/07 06:07:28;;;;;;;6.20;2.63;;;18.80;99.90;;;;;;5002736;28;20234;-65
2021/08/07 06:09:54;;;;;;;3.20;2.40;;;18.90;99.90;;;;;;4992742;28;20171;-66
2021/08/07 06:12:19;;;;;;;2.20;1.87;;;19.00;99.90;;;;;;4992903;28;20199;-65
2021/08/07 06:14:45;;;;;;;2.50;2.30;;;18.90;99.90;;;;;;4992498;28;20175;-66
2021/08/07 06:17:11;;;;;;;2.90;2.47;;;19.10;99.90;;;;;;4992664;28;20168;-66
2021/08/07 06:19:36;;;;;;;3.87;2.10;;;19.00;99.90;;;;;;4990886;28;20179;-64
2021/08/07 06:22:02;;;;;;;4.93;2.60;;;18.90;99.90;;;;;;4992776;28;20392;-66
2021/08/07 06:24:28;;;;;;;3.97;3.10;;;18.90;99.90;;;;;;5012248;28;20289;-66
2021/08/07 06:26:54;;;;;;;6.47;2.87;;;18.90;99.90;;;;;;4978696;28;20784;-66
2021/08/07 06:29:20;;;;;;;14.40;6.73;;;19.00;99.90;;;;;;4992454;28;20418;-65
2021/08/07 06:31:45;;;;;;;5.20;3.60;;;19.00;99.90;;;;;;4985580;28;20222;-66
2021/08/07 06:34:11;;;;;;;3.60;3.10;;;19.20;99.90;;;;;;5004276;28;20182;-66
2021/08/07 06:36:36;;;;;;;2.40;2.20;;;19.60;99.90;;;;;;5012239;28;20175;-68
2021/08/07 06:39:03;;;;;;;4.30;2.20;;;19.80;99.90;;;;;;4998365;28;20183;-68
2021/08/07 06:41:29;;;;;;;4.53;2.47;;;20.00;99.90;;;;;;4989784;28;20252;-69
2021/08/07 06:43:54;;;;;;;5.07;2.23;;;20.30;99.90;;;;;;5012043;28;20541;-69
2021/08/07 06:46:20;;;;;;;5.30;2.00;;;20.40;99.90;;;;;;4997495;28;20696;-69
2021/08/07 06:48:46;;;;;;;3.40;2.07;;;20.30;99.90;;;;;;5010576;28;20263;-68
2021/08/07 06:51:11;;;;;;;3.30;1.90;;;20.10;99.90;;;;;;4991246;28;20683;-70
2021/08/07 06:53:37;;;;;;;4.47;2.37;;;20.00;99.90;;;;;;5004403;28;20434;-66
2021/08/07 06:56:03;;;;;;;3.03;2.47;;;19.90;99.90;;;;;;4988315;28;20175;-69
2021/08/07 06:58:28;;;;;;;4.90;4.40;;;20.00;99.90;;;;;;5004910;28;20189;-68
2021/08/07 07:00:54;;;;;;;3.23;2.00;;;20.10;99.90;;;;;;5012003;28;20585;-68
2021/08/07 07:03:20;;;;;;;3.47;2.10;;;20.30;99.90;;;;;;5011947;28;20199;-68
2021/08/07 07:05:45;;;;;;;1.97;1.73;;;20.50;99.90;;;;;;5006790;28;20687;-68
2021/08/07 07:08:11;;;;;;;2.00;1.80;;;20.90;99.90;;;;;;4992111;28;20183;-67
2021/08/07 07:10:37;;;;;;;2.03;1.80;;;20.90;99.90;;;;;;4990532;28;20255;-69
2021/08/07 07:13:03;;;;;;;5.10;2.30;;;20.90;99.90;;;;;;4978750;28;20433;-71
2021/08/07 07:15:28;;;;;;;2.57;1.80;;;21.30;99.90;;;;;;4972868;28;20502;-68
2021/08/07 07:17:54;;;;;;;2.17;1.97;;;21.60;99.90;;;;;;4973038;28;20478;-68
2021/08/07 07:20:21;;;;;;;1.83;1.70;;;21.90;99.90;;;;;;4972522;28;20177;-68
2021/08/07 07:22:47;;;;;;;2.07;1.53;;;21.70;99.90;;;;;;4979090;28;20240;-67
2021/08/07 07:25:14;;;;;;;2.40;1.70;;;21.60;99.90;;;;;;4994282;28;20872;-67
2021/08/07 07:27:39;;;;;;;4.30;2.03;;;21.60;99.90;;;;;;4992096;28;20439;-67
2021/08/07 07:30:06;;;;;;;2.20;2.10;;;21.60;99.90;;;;;;4995658;28;20497;-68
2021/08/07 07:32:32;;;;;;;2.50;2.07;;;21.20;99.90;;;;;;4995521;28;20217;-68
2021/08/07 07:34:57;;;;;;;1.83;1.70;;;20.90;99.90;;;;;;4977409;28;20454;-68
2021/08/07 07:37:23;;;;;;;2.43;1.70;;;20.80;99.90;;;;;;4977344;28;20176;-68
2021/08/07 07:39:49;;;;;;;1.90;1.70;;;20.80;99.90;;;;;;4976035;28;20172;-68
2021/08/07 07:42:14;;;;;;;2.00;1.50;;;21.00;99.90;;;;;;4976204;28;20188;-68
2021/08/07 07:44:40;;;;;;;1.70;1.60;;;21.20;99.90;;;;;;4976376;28;20509;-68
2021/08/07 07:47:06;;;;;;;5.87;2.20;;;21.70;99.90;;;;;;4958920;28;20172;-70
2021/08/07 07:49:34;;;;;;;3.47;1.80;;;22.20;99.90;;;;;;4975872;28;20176;-69
2021/08/07 07:52:00;;;;;;;2.33;1.70;;;22.90;99.90;;;;;;4988489;28;20512;-69
2021/08/07 07:54:25;;;;;;;2.87;2.13;;;23.20;99.90;;;;;;4995567;28;20431;-69
2021/08/07 07:56:51;;;;;;;2.23;1.70;;;23.50;99.90;;;;;;4995555;28;20180;-69
2021/08/07 07:59:16;;;;;;;3.00;1.70;;;23.80;99.90;;;;;;4995477;28;20517;-69
2021/08/07 08:01:42;;;;;;;2.30;1.43;;;23.70;99.90;;;;;;4995392;28;20235;-69
2021/08/07 08:04:08;;;;;;;3.67;2.90;;;23.10;99.90;;;;;;4995752;28;20191;-68
2021/08/07 08:06:33;;;;;;;3.00;1.77;;;23.00;99.90;;;;;;4995200;28;20610;-69
2021/08/07 08:08:59;;;;;;;2.40;2.20;;;23.00;99.90;;;;;;4995055;28;20170;-68
2021/08/07 08:11:25;;;;;;;3.50;1.73;;;22.90;99.90;;;;;;4995063;28;20199;-68
2021/08/07 08:13:50;;;;;;;2.90;1.70;;;22.80;99.90;;;;;;4995167;28;20182;-68
2021/08/07 08:16:16;;;;;;;3.07;2.37;;;22.60;99.90;;;;;;4977801;28;20469;-69
2021/08/07 08:18:41;;;;;;;2.70;1.67;;;22.60;99.90;;;;;;4994828;28;20176;-68
2021/08/07 08:21:07;;;;;;;2.87;1.87;;;22.80;99.90;;;;;;4994861;28;20530;-68
2021/08/07 08:23:33;;;;;;;3.57;1.70;;;22.80;99.90;;;;;;4994960;28;20200;-68
2021/08/07 08:25:58;;;;;;;3.43;2.10;;;23.00;99.90;;;;;;4994980;28;20178;-68
2021/08/07 08:28:24;;;;;;;1.87;1.70;;;23.40;99.90;;;;;;4994795;28;20178;-68
2021/08/07 08:30:50;;;;;;;2.67;1.60;;;23.60;99.90;;;;;;4981722;28;20172;-68
2021/08/07 08:33:16;;;;;;;1.83;1.40;;;23.50;99.90;;;;;;4975470;28;20192;-69
2021/08/07 08:35:42;;;;;;;1.60;1.50;;;23.70;99.90;;;;;;4975210;28;20196;-69
2021/08/07 08:38:08;;;;;;;5.97;2.50;;;23.30;99.90;;;;;;4957956;28;20180;-68
2021/08/07 08:40:34;;;;;;;2.30;2.10;;;22.90;99.90;;;;;;4974769;28;20416;-69
2021/08/07 08:42:59;;;;;;;2.83;1.60;;;22.90;99.90;;;;;;4975200;28;20980;-69
2021/08/07 08:45:25;;;;;;;2.63;1.83;;;22.60;99.90;;;;;;4975234;28;20602;-68
2021/08/07 08:47:52;;;;;;;4.80;2.37;;;22.60;99.90;;;;;;4975162;28;20252;-69
2021/08/07 08:50:22;;;;;;;2.03;1.70;;;22.40;99.90;;;;;;4974643;28;20179;-68
2021/08/07 08:52:50;;;;;;;2.30;1.93;;;22.30;99.90;;;;;;4975040;28;20484;-69
2021/08/07 08:55:15;;;;;;;7.50;3.30;;;22.00;99.90;;;;;;4974983;28;20774;-69
2021/08/07 08:57:41;;;;;;;1.67;1.53;;;21.80;99.90;;;;;;4974899;28;20418;-69
2021/08/07 09:00:08;;;;;;;2.83;2.07;;;21.60;99.90;;;;;;4974618;28;20172;-69
2021/08/07 09:02:34;;;;;;;3.57;1.90;;;21.60;99.90;;;;;;4974719;28;20794;-69
2021/08/07 09:05:00;;;;;;;3.33;1.97;;;21.60;99.90;;;;;;4974792;28;20424;-69
2021/08/07 09:07:25;;;;;;;3.23;2.50;;;21.70;99.90;;;;;;4974785;28;20696;-68
2021/08/07 09:09:56;;;;;;;2.77;1.97;;;21.70;99.90;;;;;;4974429;28;20255;-69
2021/08/07 09:12:40;;;;;;;2.67;2.30;;;21.70;99.90;;;;;;4974433;28;20611;-68
2021/08/07 09:15:23;;;;;;;2.83;2.00;;;21.60;99.90;;;;;;4974612;28;20426;-69
2021/08/07 09:17:49;;;;;;;3.83;2.57;;;21.60;99.90;;;;;;4974641;28;20416;-68
2021/08/07 09:20:25;;;;;;;2.37;2.17;;;21.70;99.90;;;;;;4974309;28;20427;-69
2021/08/07 09:22:51;;;;;;;3.50;1.67;;;21.80;99.90;;;;;;4974361;28;20245;-69
2021/08/07 09:25:17;;;;;;;2.37;2.10;;;21.90;99.90;;;;;;4974861;28;20428;-69
2021/08/07 09:27:45;;;;;;;1.90;1.70;;;22.00;99.90;;;;;;4974368;28;20179;-69
2021/08/07 09:30:16;;;;;;;2.20;2.00;;;22.10;99.90;;;;;;4981616;28;20175;-68
2021/08/07 09:33:00;;;;;;;2.53;1.60;;;22.00;99.90;;;;;;4993638;28;20441;-68
2021/08/07 09:35:45;;;;;;;2.47;2.00;;;22.00;99.90;;;;;;4993866;28;20938;-69
2021/08/07 09:38:22;;;;;;;3.83;2.73;;;21.90;99.90;;;;;;4993542;28;20882;-69
2021/08/07 09:40:54;;;;;;;4.60;2.30;;;22.00;99.90;;;;;;4993466;28;20423;-69
2021/08/07 09:43:50;;;;;;;1.83;1.73;;;22.00;99.90;;;;;;4993401;28;20525;-69
2021/08/07 09:46:25;;;;;;;3.03;2.10;;;21.80;99.90;;;;;;4980971;28;20848;-68
2021/08/07 09:48:55;;;;;;;4.73;1.93;;;21.60;99.90;;;;;;4993090;28;20413;-68
2021/08/07 09:51:24;;;;;;;3.80;2.60;;;21.40;99.90;;;;;;4992926;28;20427;-68
2021/08/07 09:54:07;;;;;;;3.07;1.97;;;21.20;99.90;;;;;;4993349;28;20916;-68
2021/08/07 09:56:53;;;;;;;5.97;2.27;;;21.00;99.90;;;;;;4993277;28;20446;-68
2021/08/07 09:59:21;;;;;;;2.90;2.60;;;20.90;99.90;;;;;;4992925;28;20438;-69
2021/08/07 10:01:48;;;;;;;3.27;3.07;;;20.80;99.90;;;;;;4993205;28;20446;-69
2021/08/07 10:04:14;;;;;;;2.70;2.50;;;20.50;99.90;;;;;;4993032;28;20549;-68
2021/08/07 10:06:44;;;;;;;4.50;2.57;;;20.00;99.90;;;;;;4993111;28;21003;-68
2021/08/07 10:09:11;;;;;;;4.37;2.50;;;19.70;99.90;;;;;;4992846;28;20644;-69
2021/08/07 10:11:37;;;;;;;3.70;2.60;;;19.30;99.90;;;;;;5013644;23;20494;-67
2021/08/07 10:14:04;;;;;;;6.03;2.90;;;19.00;99.90;;;;;;4974040;28;20436;-66
2021/08/07 10:16:32;;;;;;;4.80;2.90;;;18.90;99.90;;;;;;4973588;28;20423;-66
2021/08/07 10:18:59;;;;;;;3.13;2.83;;;18.80;99.90;;;;;;4973246;28;20420;-66
2021/08/07 10:21:24;;;;;;;5.30;3.63;;;18.60;99.90;;;;;;4973495;28;20798;-66
2021/08/07 10:23:53;;;;;;;7.90;3.80;;;18.60;99.90;;;;;;4973358;28;20453;-66
2021/08/07 10:26:20;;;;;;;3.20;2.90;;;18.60;99.90;;;;;;4973406;28;20421;-66
2021/08/07 10:28:48;;;;;;;5.37;3.77;;;18.60;99.90;;;;;;4973399;28;20420;-66
2021/08/07 10:31:19;;;;;;;6.10;4.17;;;18.60;99.90;;;;;;4973170;28;20419;-66
2021/08/07 10:33:46;;;;;;;3.03;2.77;;;18.50;99.90;;;;;;4956155;28;20419;-66
2021/08/07 10:36:13;;;;;;;3.53;3.23;;;18.40;99.90;;;;;;4973363;28;20475;-66
2021/08/07 10:38:40;;;;;;;6.00;4.93;;;18.50;99.90;;;;;;4972981;28;20440;-66
2021/08/07 10:41:07;;;;;;;4.20;3.80;;;18.50;99.90;;;;;;4973473;28;20987;-66
2021/08/07 10:43:36;;;;;;;4.43;4.03;;;18.60;99.90;;;;;;4973111;28;20460;-67
2021/08/07 10:46:09;;;;;;;8.10;4.50;;;18.60;99.90;;;;;;4973279;28;20470;-66
2021/08/07 10:48:43;;;;;;;6.50;5.07;;;18.60;99.90;;;;;;4972875;28;20512;-66
2021/08/07 10:51:30;;;;;;;6.83;4.10;;;18.50;99.90;;;;;;4973209;28;20412;-66
2021/08/07 10:53:57;;;;;;;5.17;3.53;;;18.60;99.90;;;;;;4973180;28;20423;-66
2021/08/07 10:56:29;;;;;;;4.43;3.90;;;18.40;99.90;;;;;;4973172;28;20424;-66
2021/08/07 10:59:10;;;;;;;4.03;3.73;;;18.20;99.90;;;;;;4972843;28;20431;-67
2021/08/07 11:01:36;;;;;;;4.80;4.07;;;18.10;99.90;;;;;;4973492;28;20493;-65
2021/08/07 11:04:02;;;;;;;4.43;3.50;;;18.10;99.90;;;;;;4976910;28;20964;-65
2021/08/07 11:06:43;;;;;;;4.10;3.73;;;18.00;99.90;;;;;;4976963;28;20423;-66
2021/08/07 11:09:25;;;;;;;4.37;4.07;;;18.00;99.90;;;;;;4976854;28;20172;-66
2021/08/07 11:12:10;;;;;;;4.30;3.73;;;18.00;99.90;;;;;;4976790;28;20457;-66
2021/08/07 11:15:04;;;;;;;4.13;3.73;;;18.00;99.90;;;;;;4976815;28;20510;-67
2021/08/07 11:17:35;;;;;;;4.77;4.37;;;18.00;99.90;;;;;;4976806;28;20419;-66
2021/08/07 11:20:08;;;;;;;5.13;4.40;;;18.00;99.90;;;;;;4976320;28;20454;-66
2021/08/07 11:22:37;;;;;;;5.90;4.17;;;18.00;99.90;;;;;;4976669;28;20458;-66
2021/08/07 11:25:10;;;;;;;6.93;4.00;;;17.90;99.90;;;;;;4976670;28;20426;-65
2021/08/07 11:28:03;;;;;;;6.20;5.27;;;17.80;99.90;;;;;;4976617;28;20412;-66
2021/08/07 11:30:39;;;;;;;4.70;4.30;;;17.70;99.90;;;;;;4986302;28;20418;-66
2021/08/07 11:33:08;;;;;;;6.00;4.47;;;17.70;99.90;;;;;;4995947;28;20522;-66
2021/08/07 11:35:38;;;;;;;4.80;3.97;;;17.60;99.90;;;;;;4995867;28;20441;-66
2021/08/07 11:38:09;;;;;;;5.17;4.67;;;17.50;99.90;;;;;;4995835;28;20777;-66
2021/08/07 11:40:50;;;;;;;6.80;5.27;;;17.40;99.90;;;;;;4995422;28;20422;-66
2021/08/07 11:43:19;;;;;;;5.03;4.63;;;17.50;99.90;;;;;;4995517;28;20527;-66
2021/08/07 11:45:46;;;;;;;5.20;4.70;;;17.50;99.90;;;;;;4995584;28;20429;-66
2021/08/07 11:48:21;;;;;;;5.17;4.77;;;17.50;99.90;;;;;;4995417;28;20473;-66
2021/08/07 11:50:46;;;;;;;5.20;4.70;;;17.50;99.90;;;;;;4995530;28;20768;-66
2021/08/07 11:53:14;;;;;;;4.47;3.70;;;17.50;99.90;;;;;;4995606;28;20810;-66
2021/08/07 11:55:39;;;;;;;7.47;4.50;;;17.50;99.90;;;;;;4995444;28;20222;-66
2021/08/07 11:58:06;;;;;;;5.40;4.27;;;17.50;99.90;;;;;;4995535;28;20419;-66
2021/08/07 12:00:34;;;;;;;7.27;4.80;;;17.50;99.90;;;;;;4995378;28;20174;-66
2021/08/07 12:03:03;;;;;;;7.53;4.80;;;17.60;99.90;;;;;;4995601;28;20809;-67
2021/08/07 12:05:29;;;;;;;5.27;4.60;;;17.60;99.90;;;;;;4995522;28;20434;-67
2021/08/07 12:08:07;;;;;;;5.40;4.90;;;17.70;99.90;;;;;;4995426;28;20422;-66
2021/08/07 12:10:35;;;;;;;4.93;4.53;;;17.70;99.90;;;;;;4995115;28;20420;-67
2021/08/07 12:13:00;;;;;;;4.83;4.30;;;17.70;99.90;;;;;;4995111;28;20497;-66
2021/08/07 12:15:27;;;;;;;4.60;4.13;;;17.70;99.90;;;;;;4994534;28;20450;-67
2021/08/07 12:17:53;;;;;;;9.53;4.67;;;17.70;99.90;;;;;;4995253;28;20172;-66
2021/08/07 12:20:19;;;;;;;4.23;3.93;;;17.60;99.90;;;;;;4994950;28;20928;-65
2021/08/07 12:23:02;;;;;;;6.67;4.03;;;17.60;99.90;;;;;;4994881;28;20450;-65
2021/08/07 12:25:29;;;;;;;5.10;4.17;;;17.60;99.90;;;;;;4995259;28;20172;-66
2021/08/07 12:28:02;;;;;;;4.47;3.60;;;17.60;99.90;;;;;;4994951;28;20501;-66
2021/08/07 12:30:28;;;;;;;4.27;3.97;;;17.60;99.90;;;;;;4984497;28;20443;-66
2021/08/07 12:33:17;;;;;;;6.00;4.17;;;17.60;99.90;;;;;;4975450;28;20448;-66
2021/08/07 12:35:43;;;;;;;4.27;3.87;;;17.50;99.90;;;;;;4975436;28;20169;-66
2021/08/07 12:38:23;;;;;;;6.50;4.30;;;17.50;99.90;;;;;;4975369;28;20475;-67
2021/08/07 12:40:53;;;;;;;6.03;3.87;;;17.50;99.90;;;;;;4975456;28;20191;-66
2021/08/07 12:43:19;;;;;;;6.17;4.90;;;17.50;99.90;;;;;;4975159;28;20546;-66
2021/08/07 12:45:56;;;;;;;4.60;4.20;;;17.40;99.90;;;;;;4975031;28;20940;-66
2021/08/07 12:48:22;;;;;;;5.67;5.20;;;17.40;99.90;;;;;;4975089;28;20415;-66
2021/08/07 12:50:59;;;;;;;8.83;4.90;;;17.40;99.90;;;;;;4975151;28;20861;-66
2021/08/07 12:53:40;;;;;;;5.10;4.27;;;17.40;99.90;;;;;;4975055;28;20246;-66
2021/08/07 12:56:05;;;;;;;5.27;3.90;;;17.40;99.90;;;;;;4974929;28;20431;-66